createdAt,value
2019-04-29T00:00:58.453Z,0.00
2019-04-29T00:01:58.441Z,0.00
2019-04-29T00:02:58.475Z,0.00
2019-04-29T00:03:58.408Z,0.00
2019-04-29T00:04:58.401Z,0.00
2019-04-29T00:05:58.405Z,0.00
2019-04-29T00:06:58.401Z,0.00
2019-04-29T00:07:58.376Z,0.00
2019-04-29T00:08:58.381Z,0.00
2019-04-29T00:09:58.365Z,0.00
2019-04-29T00:10:58.341Z,0.00
2019-04-29T00:11:58.350Z,0.00
2019-04-29T00:12:58.350Z,0.00
2019-04-29T00:13:58.316Z,0.00
2019-04-29T00:14:58.310Z,0.00
2019-04-29T00:15:58.286Z,0.00
2019-04-29T00:16:58.278Z,0.00
2019-04-29T00:17:58.290Z,0.00
2019-04-29T00:18:58.248Z,0.00
2019-04-29T00:19:58.253Z,0.00
2019-04-29T00:20:58.244Z,0.00
2019-04-29T00:21:58.225Z,0.00
2019-04-29T00:22:58.215Z,0.00
2019-04-29T00:24:04.056Z,0.00
2019-04-29T00:24:59.199Z,0.00
2019-04-29T00:25:58.185Z,0.00
2019-04-29T00:26:58.162Z,0.00
2019-04-29T00:27:58.155Z,0.00
2019-04-29T00:28:58.235Z,0.00
2019-04-29T00:29:58.169Z,0.00
2019-04-29T00:30:58.115Z,0.00
2019-04-29T00:31:58.110Z,0.00
2019-04-29T00:32:58.104Z,0.00
2019-04-29T00:33:58.090Z,0.00
2019-04-29T00:34:58.073Z,0.00
2019-04-29T00:35:58.089Z,0.00
2019-04-29T00:36:58.085Z,0.00
2019-04-29T00:37:58.064Z,0.00
2019-04-29T00:38:58.039Z,0.00
2019-04-29T00:39:58.014Z,0.00
2019-04-29T00:40:58.010Z,0.00
2019-04-29T00:41:58.021Z,0.00
2019-04-29T00:42:57.995Z,0.00
2019-04-29T00:43:57.999Z,0.00
2019-04-29T00:44:57.974Z,0.00
2019-04-29T00:45:57.976Z,0.00
2019-04-29T00:46:57.974Z,0.00
2019-04-29T00:47:57.937Z,0.00
2019-04-29T00:48:57.948Z,0.00
2019-04-29T00:49:57.918Z,0.00
2019-04-29T00:50:57.891Z,0.00
2019-04-29T00:51:57.902Z,0.00
2019-04-29T00:52:57.883Z,0.00
2019-04-29T00:53:57.889Z,0.00
2019-04-29T00:54:57.863Z,0.00
2019-04-29T00:55:57.863Z,0.00
2019-04-29T00:56:57.842Z,0.00
2019-04-29T00:57:57.835Z,0.00
2019-04-29T00:58:57.873Z,0.00
2019-04-29T00:59:57.805Z,0.00
2019-04-29T01:00:57.788Z,0.00
2019-04-29T01:01:57.773Z,0.00
2019-04-29T01:02:57.786Z,0.00
2019-04-29T01:03:57.776Z,0.00
2019-04-29T01:04:57.753Z,0.00
2019-04-29T01:05:57.743Z,0.00
2019-04-29T01:06:57.741Z,0.00
2019-04-29T01:07:57.709Z,0.00
2019-04-29T01:08:57.701Z,0.00
2019-04-29T01:09:57.735Z,0.00
2019-04-29T01:10:57.684Z,0.00
2019-04-29T01:11:57.671Z,0.00
2019-04-29T01:12:57.657Z,0.00
2019-04-29T01:13:57.644Z,0.00
2019-04-29T01:14:57.646Z,0.00
2019-04-29T01:15:57.659Z,0.00
2019-04-29T01:16:57.623Z,0.00
2019-04-29T01:17:57.637Z,0.00
2019-04-29T01:18:57.614Z,0.00
2019-04-29T01:19:57.576Z,0.00
2019-04-29T01:20:57.573Z,0.00
2019-04-29T01:21:57.574Z,0.00
2019-04-29T01:22:57.556Z,0.00
2019-04-29T01:23:57.554Z,0.00
2019-04-29T01:24:57.544Z,0.00
2019-04-29T01:25:57.515Z,0.00
2019-04-29T01:26:57.530Z,0.00
2019-04-29T01:27:57.510Z,0.00
2019-04-29T01:28:57.491Z,0.00
2019-04-29T01:29:57.495Z,0.00
2019-04-29T01:30:57.486Z,0.00
2019-04-29T01:31:57.460Z,0.00
2019-04-29T01:32:57.438Z,0.00
2019-04-29T01:33:57.427Z,0.00
2019-04-29T01:34:57.418Z,0.00
2019-04-29T01:35:57.412Z,0.00
2019-04-29T01:36:57.419Z,0.00
2019-04-29T01:37:57.392Z,0.00
2019-04-29T01:38:57.412Z,0.00
2019-04-29T01:39:57.358Z,0.00
2019-04-29T01:40:57.351Z,0.00
2019-04-29T01:41:57.355Z,0.00
2019-04-29T01:42:57.350Z,0.00
2019-04-29T01:43:57.314Z,0.00
2019-04-29T01:44:57.319Z,0.00
2019-04-29T01:45:57.294Z,0.00
2019-04-29T01:46:57.291Z,0.00
2019-04-29T01:47:57.295Z,0.00
2019-04-29T01:48:57.292Z,0.00
2019-04-29T01:49:57.255Z,0.00
2019-04-29T01:50:57.242Z,0.00
2019-04-29T01:51:57.228Z,0.00
2019-04-29T01:52:57.234Z,0.00
2019-04-29T01:53:57.209Z,0.00
2019-04-29T01:54:57.198Z,0.00
2019-04-29T01:55:57.215Z,0.00
2019-04-29T01:56:57.189Z,0.00
2019-04-29T01:57:57.189Z,0.00
2019-04-29T01:58:57.157Z,0.00
2019-04-29T01:59:57.150Z,0.00
2019-04-29T02:00:57.148Z,0.00
2019-04-29T02:01:57.130Z,0.00
2019-04-29T02:02:57.137Z,0.00
2019-04-29T02:03:57.108Z,0.00
2019-04-29T02:04:57.103Z,0.00
2019-04-29T02:05:57.088Z,0.00
2019-04-29T02:06:57.067Z,0.00
2019-04-29T02:07:57.060Z,0.00
2019-04-29T02:08:57.074Z,0.00
2019-04-29T02:09:57.061Z,0.00
2019-04-29T02:10:57.032Z,0.00
2019-04-29T02:11:57.012Z,0.00
2019-04-29T02:12:57.021Z,0.00
2019-04-29T02:13:56.999Z,0.00
2019-04-29T02:14:56.989Z,0.00
2019-04-29T02:15:56.974Z,0.00
2019-04-29T02:16:56.955Z,0.00
2019-04-29T02:17:56.962Z,0.00
2019-04-29T02:18:56.938Z,0.00
2019-04-29T02:19:56.939Z,0.00
2019-04-29T02:20:56.917Z,0.00
2019-04-29T02:21:56.918Z,0.00
2019-04-29T02:22:56.929Z,0.00
2019-04-29T02:23:56.871Z,0.00
2019-04-29T02:24:56.871Z,0.00
2019-04-29T02:25:56.878Z,0.00
2019-04-29T02:26:56.839Z,0.00
2019-04-29T02:27:56.853Z,0.00
2019-04-29T02:28:56.883Z,0.00
2019-04-29T02:29:56.814Z,0.00
2019-04-29T02:30:56.800Z,0.00
2019-04-29T02:31:56.791Z,0.00
2019-04-29T02:32:56.816Z,0.00
2019-04-29T02:33:56.782Z,0.00
2019-04-29T02:34:56.788Z,0.00
2019-04-29T02:35:56.751Z,0.00
2019-04-29T02:36:56.756Z,0.00
2019-04-29T02:37:56.738Z,0.00
2019-04-29T02:38:56.735Z,0.00
2019-04-29T02:39:56.708Z,0.00
2019-04-29T02:40:56.701Z,0.00
2019-04-29T02:41:56.695Z,0.00
2019-04-29T02:42:56.679Z,0.00
2019-04-29T02:43:56.679Z,0.00
2019-04-29T02:44:56.664Z,0.00
2019-04-29T02:45:56.660Z,0.00
2019-04-29T02:46:56.626Z,0.00
2019-04-29T02:47:56.648Z,0.00
2019-04-29T02:48:56.627Z,0.00
2019-04-29T02:49:56.593Z,0.00
2019-04-29T02:50:56.581Z,0.00
2019-04-29T02:51:56.578Z,0.00
2019-04-29T02:52:56.568Z,0.00
2019-04-29T02:53:56.574Z,0.00
2019-04-29T02:54:56.537Z,0.00
2019-04-29T02:55:56.528Z,0.00
2019-04-29T02:56:56.514Z,0.00
2019-04-29T02:57:56.508Z,0.00
2019-04-29T02:58:56.515Z,0.00
2019-04-29T02:59:56.494Z,0.00
2019-04-29T03:00:56.481Z,0.00
2019-04-29T03:01:56.460Z,0.00
2019-04-29T03:02:56.454Z,0.00
2019-04-29T03:03:56.481Z,0.00
2019-04-29T03:04:56.439Z,0.00
2019-04-29T03:05:56.440Z,0.00
2019-04-29T03:06:56.423Z,0.00
2019-04-29T03:07:56.394Z,0.00
2019-04-29T03:08:56.404Z,0.00
2019-04-29T03:09:56.387Z,0.00
2019-04-29T03:10:56.416Z,0.00
2019-04-29T03:11:56.375Z,0.00
2019-04-29T03:12:56.353Z,0.00
2019-04-29T03:13:56.342Z,0.00
2019-04-29T03:14:56.345Z,0.00
2019-04-29T03:15:56.313Z,0.00
2019-04-29T03:16:56.317Z,0.00
2019-04-29T03:17:56.295Z,0.00
2019-04-29T03:18:56.284Z,0.00
2019-04-29T03:19:56.283Z,0.00
2019-04-29T03:20:56.250Z,0.00
2019-04-29T03:21:56.266Z,0.00
2019-04-29T03:22:56.226Z,0.00
2019-04-29T03:23:56.235Z,0.00
2019-04-29T03:24:56.249Z,0.00
2019-04-29T03:25:56.210Z,0.00
2019-04-29T03:26:56.194Z,0.00
2019-04-29T03:27:56.169Z,0.00
2019-04-29T03:28:56.157Z,0.00
2019-04-29T03:29:56.171Z,0.00
2019-04-29T03:30:56.131Z,0.00
2019-04-29T03:31:56.255Z,0.00
2019-04-29T03:32:56.122Z,0.00
2019-04-29T03:33:56.110Z,0.00
2019-04-29T03:34:56.132Z,0.00
2019-04-29T03:35:56.101Z,0.00
2019-04-29T03:36:56.097Z,0.00
2019-04-29T03:37:56.069Z,0.00
2019-04-29T03:38:56.065Z,0.00
2019-04-29T03:39:56.067Z,0.00
2019-04-29T03:40:56.033Z,0.00
2019-04-29T03:41:56.017Z,0.00
2019-04-29T03:42:56.066Z,0.00
2019-04-29T03:43:56.002Z,0.00
2019-04-29T03:44:56.171Z,0.00
2019-04-29T03:45:56.004Z,0.00
2019-04-29T03:46:55.972Z,0.00
2019-04-29T03:47:55.955Z,0.00
2019-04-29T03:48:55.946Z,0.00
2019-04-29T03:49:55.940Z,5.62
2019-04-29T03:50:55.945Z,5.62
2019-04-29T03:51:56.009Z,5.62
2019-04-29T03:52:55.908Z,5.62
2019-04-29T03:53:55.892Z,5.62
2019-04-29T03:54:55.889Z,5.62
2019-04-29T03:55:55.901Z,5.62
2019-04-29T03:56:55.857Z,5.62
2019-04-29T03:57:55.856Z,5.62
2019-04-29T03:58:55.892Z,5.62
2019-04-29T03:59:57.095Z,5.62
2019-04-29T04:00:55.812Z,5.62
2019-04-29T04:01:55.811Z,5.62
2019-04-29T04:02:55.786Z,5.62
2019-04-29T04:03:55.783Z,5.62
2019-04-29T04:04:55.808Z,11.25
2019-04-29T04:05:55.753Z,11.25
2019-04-29T04:06:55.744Z,11.25
2019-04-29T04:07:55.748Z,11.25
2019-04-29T04:09:05.592Z,11.25
2019-04-29T04:09:57.199Z,11.25
2019-04-29T04:10:55.722Z,16.88
2019-04-29T04:11:55.685Z,16.88
2019-04-29T04:12:55.673Z,16.88
2019-04-29T04:13:55.669Z,16.88
2019-04-29T04:14:55.650Z,16.88
2019-04-29T04:15:56.070Z,16.88
2019-04-29T04:16:55.643Z,16.88
2019-04-29T04:17:55.643Z,16.88
2019-04-29T04:18:55.622Z,28.12
2019-04-29T04:19:55.611Z,22.50
2019-04-29T04:20:55.604Z,22.50
2019-04-29T04:21:55.604Z,22.50
2019-04-29T04:22:55.576Z,16.88
2019-04-29T04:23:58.182Z,22.50
2019-04-29T04:24:55.552Z,22.50
2019-04-29T04:25:55.565Z,28.12
2019-04-29T04:26:55.528Z,22.50
2019-04-29T04:27:55.518Z,28.12
2019-04-29T04:28:55.512Z,22.50
2019-04-29T04:29:55.498Z,28.12
2019-04-29T04:30:55.491Z,28.12
2019-04-29T04:31:55.503Z,22.50
2019-04-29T04:32:55.454Z,28.12
2019-04-29T04:33:55.465Z,33.75
2019-04-29T04:34:55.440Z,33.75
2019-04-29T04:35:55.443Z,45.00
2019-04-29T04:36:55.448Z,39.38
2019-04-29T04:37:55.402Z,39.38
2019-04-29T04:38:55.386Z,33.75
2019-04-29T04:39:55.391Z,39.38
2019-04-29T04:40:55.378Z,45.00
2019-04-29T04:41:55.386Z,50.62
2019-04-29T04:42:55.365Z,39.38
2019-04-29T04:43:55.356Z,45.00
2019-04-29T04:44:55.338Z,50.62
2019-04-29T04:45:55.322Z,61.88
2019-04-29T04:46:55.324Z,61.88
2019-04-29T04:47:55.304Z,45.00
2019-04-29T04:48:55.304Z,50.62
2019-04-29T04:49:55.291Z,50.62
2019-04-29T04:50:55.266Z,45.00
2019-04-29T04:51:55.257Z,56.25
2019-04-29T04:52:55.253Z,61.88
2019-04-29T04:53:55.244Z,50.62
2019-04-29T04:54:55.225Z,61.88
2019-04-29T04:55:55.218Z,67.50
2019-04-29T04:56:55.217Z,61.88
2019-04-29T04:57:55.186Z,61.88
2019-04-29T04:58:55.177Z,67.50
2019-04-29T04:59:55.164Z,56.25
2019-04-29T05:00:55.157Z,45.00
2019-04-29T05:01:55.168Z,61.88
2019-04-29T05:02:55.213Z,50.62
2019-04-29T05:03:55.119Z,50.62
2019-04-29T05:04:55.127Z,50.62
2019-04-29T05:05:55.103Z,45.00
2019-04-29T05:06:55.100Z,39.38
2019-04-29T05:07:55.073Z,39.38
2019-04-29T05:08:55.089Z,39.38
2019-04-29T05:09:55.059Z,39.38
2019-04-29T05:10:55.041Z,56.25
2019-04-29T05:11:55.052Z,67.50
2019-04-29T05:12:55.027Z,67.50
2019-04-29T05:13:55.026Z,61.88
2019-04-29T05:14:55.006Z,61.88
2019-04-29T05:15:54.985Z,56.25
2019-04-29T05:16:54.998Z,61.88
2019-04-29T05:17:54.966Z,73.12
2019-04-29T05:18:54.945Z,90.00
2019-04-29T05:19:54.945Z,78.75
2019-04-29T05:20:54.958Z,61.88
2019-04-29T05:21:54.945Z,78.75
2019-04-29T05:22:54.911Z,67.50
2019-04-29T05:23:54.919Z,61.88
2019-04-29T05:24:54.889Z,95.62
2019-04-29T05:25:54.879Z,112.50
2019-04-29T05:26:54.901Z,90.00
2019-04-29T05:27:54.867Z,73.12
2019-04-29T05:28:54.844Z,90.00
2019-04-29T05:29:54.828Z,129.38
2019-04-29T05:30:54.814Z,95.62
2019-04-29T05:31:54.838Z,67.50
2019-04-29T05:32:54.813Z,56.25
2019-04-29T05:33:54.794Z,61.88
2019-04-29T05:34:55.140Z,90.00
2019-04-29T05:35:56.888Z,106.88
2019-04-29T05:36:55.776Z,101.25
2019-04-29T05:37:56.795Z,90.00
2019-04-29T05:38:54.729Z,61.88
2019-04-29T05:39:54.728Z,56.25
2019-04-29T05:40:56.859Z,56.25
2019-04-29T05:41:54.720Z,50.62
2019-04-29T05:42:54.724Z,39.38
2019-04-29T05:43:54.685Z,56.25
2019-04-29T05:44:54.686Z,73.12
2019-04-29T05:45:54.664Z,73.12
2019-04-29T05:46:54.674Z,50.62
2019-04-29T05:47:56.979Z,33.75
2019-04-29T05:48:54.621Z,33.75
2019-04-29T05:49:54.634Z,39.38
2019-04-29T05:50:54.621Z,45.00
2019-04-29T05:51:57.609Z,45.00
2019-04-29T05:52:55.586Z,50.62
2019-04-29T05:53:55.852Z,39.38
2019-04-29T05:54:54.564Z,28.12
2019-04-29T05:55:54.548Z,28.12
2019-04-29T05:56:54.552Z,33.75
2019-04-29T05:57:55.854Z,45.00
2019-04-29T05:58:55.519Z,33.75
2019-04-29T05:59:54.504Z,33.75
2019-04-29T06:00:54.487Z,28.12
2019-04-29T06:01:54.508Z,22.50
2019-04-29T06:02:54.470Z,22.50
2019-04-29T06:03:54.462Z,28.12
2019-04-29T06:04:54.467Z,39.38
2019-04-29T06:05:54.444Z,39.38
2019-04-29T06:06:54.433Z,39.38
2019-04-29T06:07:56.210Z,39.38
2019-04-29T06:08:55.409Z,33.75
2019-04-29T06:09:54.395Z,39.38
2019-04-29T06:10:54.381Z,45.00
2019-04-29T06:11:54.376Z,50.62
2019-04-29T06:12:54.387Z,50.62
2019-04-29T06:13:54.347Z,50.62
2019-04-29T06:14:54.334Z,56.25
2019-04-29T06:15:54.411Z,56.25
2019-04-29T06:16:57.596Z,56.25
2019-04-29T06:17:55.335Z,50.62
2019-04-29T06:18:59.786Z,50.62
2019-04-29T06:19:55.281Z,56.25
2019-04-29T06:21:07.889Z,67.50
2019-04-29T06:21:55.259Z,61.88
2019-04-29T06:22:54.270Z,56.25
2019-04-29T06:23:54.738Z,56.25
2019-04-29T06:24:54.239Z,67.50
2019-04-29T06:25:54.231Z,67.50
2019-04-29T06:26:54.216Z,73.12
2019-04-29T06:27:54.216Z,73.12
2019-04-29T06:28:54.187Z,73.12
2019-04-29T06:29:54.176Z,78.75
2019-04-29T06:30:54.186Z,90.00
2019-04-29T06:31:54.166Z,84.38
2019-04-29T06:32:54.177Z,101.25
2019-04-29T06:33:54.123Z,112.50
2019-04-29T06:34:54.116Z,129.38
2019-04-29T06:35:56.928Z,191.25
2019-04-29T06:36:54.099Z,163.12
2019-04-29T06:37:54.115Z,219.38
2019-04-29T06:38:54.080Z,247.50
2019-04-29T06:39:54.058Z,241.88
2019-04-29T06:40:54.051Z,219.38
2019-04-29T06:41:54.056Z,196.88
2019-04-29T06:42:55.203Z,191.25
2019-04-29T06:43:56.060Z,168.75
2019-04-29T06:44:54.000Z,157.50
2019-04-29T06:45:53.994Z,157.50
2019-04-29T06:46:54.574Z,151.88
2019-04-29T06:47:53.997Z,146.25
2019-04-29T06:48:53.974Z,157.50
2019-04-29T06:49:53.951Z,135.00
2019-04-29T06:50:53.970Z,151.88
2019-04-29T06:51:53.938Z,146.25
2019-04-29T06:52:53.936Z,157.50
2019-04-29T06:53:53.901Z,135.00
2019-04-29T06:54:53.916Z,163.12
2019-04-29T06:55:53.893Z,157.50
2019-04-29T06:56:53.868Z,163.12
2019-04-29T06:57:53.882Z,146.25
2019-04-29T06:58:53.849Z,129.38
2019-04-29T06:59:54.905Z,135.00
2019-04-29T07:00:55.929Z,123.75
2019-04-29T07:01:54.833Z,118.12
2019-04-29T07:02:53.840Z,106.88
2019-04-29T07:03:55.735Z,106.88
2019-04-29T07:04:54.784Z,106.88
2019-04-29T07:05:53.774Z,112.50
2019-04-29T07:06:57.510Z,101.25
2019-04-29T07:07:53.767Z,101.25
2019-04-29T07:08:53.748Z,112.50
2019-04-29T07:09:56.706Z,106.88
2019-04-29T07:10:55.894Z,123.75
2019-04-29T07:12:01.131Z,123.75
2019-04-29T07:12:54.723Z,112.50
2019-04-29T07:13:57.695Z,135.00
2019-04-29T07:14:54.678Z,118.12
2019-04-29T07:15:53.673Z,140.62
2019-04-29T07:16:53.646Z,123.75
2019-04-29T07:17:53.665Z,129.38
2019-04-29T07:18:53.892Z,140.62
2019-04-29T07:19:57.447Z,129.38
2019-04-29T07:20:54.611Z,106.88
2019-04-29T07:21:56.458Z,112.50
2019-04-29T07:22:56.536Z,112.50
2019-04-29T07:23:54.585Z,106.88
2019-04-29T07:24:53.570Z,129.38
2019-04-29T07:25:53.554Z,191.25
2019-04-29T07:26:53.545Z,241.88
2019-04-29T07:27:53.533Z,219.38
2019-04-29T07:28:55.285Z,275.62
2019-04-29T07:29:53.509Z,236.25
2019-04-29T07:31:02.662Z,258.75
2019-04-29T07:31:54.489Z,174.38
2019-04-29T07:32:53.489Z,202.50
2019-04-29T07:33:57.548Z,174.38
2019-04-29T07:34:53.465Z,225.00
2019-04-29T07:35:53.451Z,185.62
2019-04-29T07:36:57.618Z,196.88
2019-04-29T07:37:54.418Z,174.38
2019-04-29T07:38:56.695Z,180.00
2019-04-29T07:39:53.394Z,185.62
2019-04-29T07:40:53.398Z,202.50
2019-04-29T07:41:53.740Z,174.38
2019-04-29T07:42:53.362Z,185.62
2019-04-29T07:43:53.382Z,157.50
2019-04-29T07:44:54.163Z,180.00
2019-04-29T07:45:53.340Z,185.62
2019-04-29T07:47:00.370Z,241.88
2019-04-29T07:47:56.704Z,275.62
2019-04-29T07:49:01.467Z,241.88
2019-04-29T07:49:54.303Z,213.75
2019-04-29T07:50:53.277Z,241.88
2019-04-29T07:51:53.270Z,191.25
2019-04-29T07:52:53.284Z,191.25
2019-04-29T07:53:53.273Z,180.00
2019-04-29T07:54:56.126Z,140.62
2019-04-29T07:55:53.232Z,129.38
2019-04-29T07:56:53.208Z,129.38
2019-04-29T07:57:53.277Z,118.12
2019-04-29T07:58:53.236Z,106.88
2019-04-29T07:59:53.187Z,118.12
2019-04-29T08:00:56.142Z,123.75
2019-04-29T08:01:55.591Z,112.50
2019-04-29T08:02:54.132Z,118.12
2019-04-29T08:03:53.134Z,112.50
2019-04-29T08:04:53.599Z,101.25
2019-04-29T08:05:53.116Z,123.75
2019-04-29T08:06:53.121Z,106.88
2019-04-29T08:07:53.094Z,101.25
2019-04-29T08:08:55.134Z,140.62
2019-04-29T08:09:53.107Z,146.25
2019-04-29T08:10:56.583Z,157.50
2019-04-29T08:11:53.047Z,135.00
2019-04-29T08:12:53.043Z,202.50
2019-04-29T08:13:53.102Z,129.38
2019-04-29T08:14:53.305Z,151.88
2019-04-29T08:15:53.023Z,129.38
2019-04-29T08:16:53.006Z,106.88
2019-04-29T08:18:05.945Z,106.88
2019-04-29T08:18:54.920Z,101.25
2019-04-29T08:19:53.006Z,90.00
2019-04-29T08:20:52.947Z,73.12
2019-04-29T08:21:52.941Z,67.50
2019-04-29T08:22:52.919Z,73.12
2019-04-29T08:23:52.939Z,90.00
2019-04-29T08:24:52.922Z,84.38
2019-04-29T08:25:57.311Z,129.38
2019-04-29T08:26:53.891Z,123.75
2019-04-29T08:27:52.876Z,151.88
2019-04-29T08:28:59.934Z,174.38
2019-04-29T08:29:53.846Z,123.75
2019-04-29T08:30:52.841Z,163.12
2019-04-29T08:31:57.305Z,196.88
2019-04-29T08:32:53.803Z,191.25
2019-04-29T08:33:52.819Z,191.25
2019-04-29T08:34:53.613Z,196.88
2019-04-29T08:35:52.794Z,180.00
2019-04-29T08:36:52.773Z,230.62
2019-04-29T08:37:52.765Z,213.75
2019-04-29T08:38:52.756Z,196.88
2019-04-29T08:40:08.473Z,213.75
2019-04-29T08:40:53.748Z,241.88
2019-04-29T08:41:52.719Z,225.00
2019-04-29T08:42:52.704Z,225.00
2019-04-29T08:43:57.766Z,258.75
2019-04-29T08:44:54.792Z,185.62
2019-04-29T08:45:53.721Z,196.88
2019-04-29T08:46:52.906Z,264.38
2019-04-29T08:47:52.652Z,213.75
2019-04-29T08:48:52.649Z,202.50
2019-04-29T08:49:52.652Z,230.62
2019-04-29T08:50:52.644Z,208.12
2019-04-29T08:51:52.617Z,225.00
2019-04-29T08:52:52.585Z,253.12
2019-04-29T08:53:52.575Z,270.00
2019-04-29T08:54:55.478Z,281.25
2019-04-29T08:55:52.596Z,315.00
2019-04-29T08:57:02.789Z,405.00
2019-04-29T08:57:53.553Z,382.50
2019-04-29T08:58:52.536Z,421.88
2019-04-29T08:59:52.514Z,444.38
2019-04-29T09:00:55.707Z,444.38
2019-04-29T09:01:52.498Z,540.00
2019-04-29T09:02:52.484Z,798.75
2019-04-29T09:03:53.632Z,860.62
2019-04-29T09:04:54.077Z,691.88
2019-04-29T09:06:05.071Z,691.88
2019-04-29T09:06:53.454Z,641.25
2019-04-29T09:07:56.778Z,675.00
2019-04-29T09:08:55.088Z,618.75
2019-04-29T09:09:56.290Z,646.88
2019-04-29T09:10:53.437Z,675.00
2019-04-29T09:11:52.404Z,652.50
2019-04-29T09:12:52.406Z,804.38
2019-04-29T09:13:52.386Z,956.25
2019-04-29T09:14:52.396Z,1023.75
2019-04-29T09:15:52.358Z,905.62
2019-04-29T09:16:52.376Z,894.38
2019-04-29T09:17:52.321Z,911.25
2019-04-29T09:18:52.300Z,933.75
2019-04-29T09:19:52.322Z,1068.75
2019-04-29T09:20:52.296Z,928.12
2019-04-29T09:21:52.283Z,798.75
2019-04-29T09:22:52.268Z,511.88
2019-04-29T09:23:52.266Z,506.25
2019-04-29T09:24:52.276Z,472.50
2019-04-29T09:26:02.593Z,551.25
2019-04-29T09:26:53.218Z,495.00
2019-04-29T09:27:52.238Z,489.38
2019-04-29T09:28:52.207Z,511.88
2019-04-29T09:29:54.299Z,517.50
2019-04-29T09:30:53.192Z,511.88
2019-04-29T09:31:52.166Z,433.12
2019-04-29T09:32:52.167Z,478.12
2019-04-29T09:33:59.689Z,466.88
2019-04-29T09:34:55.501Z,455.62
2019-04-29T09:35:53.141Z,416.25
2019-04-29T09:36:52.100Z,455.62
2019-04-29T09:37:53.872Z,495.00
2019-04-29T09:38:53.081Z,438.75
2019-04-29T09:39:52.072Z,405.00
2019-04-29T09:40:54.513Z,399.38
2019-04-29T09:41:53.051Z,410.62
2019-04-29T09:42:52.041Z,376.88
2019-04-29T09:43:52.052Z,360.00
2019-04-29T09:44:52.022Z,343.12
2019-04-29T09:45:53.918Z,405.00
2019-04-29T09:46:52.984Z,388.12
2019-04-29T09:47:51.978Z,371.25
2019-04-29T09:48:52.024Z,421.88
2019-04-29T09:49:51.970Z,331.88
2019-04-29T09:50:51.942Z,343.12
2019-04-29T09:51:51.931Z,298.12
2019-04-29T09:52:51.922Z,382.50
2019-04-29T09:53:51.939Z,348.75
2019-04-29T09:54:51.919Z,331.88
2019-04-29T09:55:51.903Z,343.12
2019-04-29T09:56:51.902Z,376.88
2019-04-29T09:57:51.875Z,427.50
2019-04-29T09:58:51.854Z,382.50
2019-04-29T09:59:51.845Z,393.75
2019-04-29T10:00:51.838Z,348.75
2019-04-29T10:01:54.993Z,416.25
2019-04-29T10:02:51.820Z,427.50
2019-04-29T10:03:51.812Z,348.75
2019-04-29T10:04:56.894Z,393.75
2019-04-29T10:05:52.775Z,444.38
2019-04-29T10:06:51.791Z,416.25
2019-04-29T10:07:51.763Z,376.88
2019-04-29T10:08:51.745Z,421.88
2019-04-29T10:09:57.555Z,354.38
2019-04-29T10:10:52.726Z,348.75
2019-04-29T10:11:51.727Z,416.25
2019-04-29T10:12:53.889Z,427.50
2019-04-29T10:13:51.704Z,438.75
2019-04-29T10:14:51.684Z,483.75
2019-04-29T10:15:51.669Z,444.38
2019-04-29T10:16:51.689Z,393.75
2019-04-29T10:17:55.482Z,388.12
2019-04-29T10:18:51.633Z,466.88
2019-04-29T10:19:51.623Z,455.62
2019-04-29T10:20:51.624Z,416.25
2019-04-29T10:21:51.632Z,421.88
2019-04-29T10:22:53.706Z,450.00
2019-04-29T10:23:51.579Z,444.38
2019-04-29T10:24:51.580Z,326.25
2019-04-29T10:25:51.557Z,354.38
2019-04-29T10:26:51.552Z,326.25
2019-04-29T10:27:51.572Z,405.00
2019-04-29T10:28:51.525Z,399.38
2019-04-29T10:29:55.355Z,337.50
2019-04-29T10:30:52.502Z,343.12
2019-04-29T10:31:51.482Z,315.00
2019-04-29T10:32:51.526Z,354.38
2019-04-29T10:33:54.819Z,337.50
2019-04-29T10:34:51.468Z,337.50
2019-04-29T10:35:51.460Z,326.25
2019-04-29T10:36:52.570Z,360.00
2019-04-29T10:37:51.443Z,354.38
2019-04-29T10:38:51.430Z,376.88
2019-04-29T10:39:51.473Z,393.75
2019-04-29T10:40:51.396Z,376.88
2019-04-29T10:41:51.381Z,405.00
2019-04-29T10:42:51.376Z,410.62
2019-04-29T10:43:53.555Z,461.25
2019-04-29T10:44:51.358Z,450.00
2019-04-29T10:45:51.343Z,461.25
2019-04-29T10:46:51.338Z,416.25
2019-04-29T10:47:51.347Z,399.38
2019-04-29T10:48:51.298Z,427.50
2019-04-29T10:49:51.325Z,427.50
2019-04-29T10:50:51.987Z,500.62
2019-04-29T10:51:51.268Z,376.88
2019-04-29T10:52:51.288Z,455.62
2019-04-29T10:53:52.655Z,551.25
2019-04-29T10:54:55.214Z,438.75
2019-04-29T10:55:52.214Z,630.00
2019-04-29T10:56:51.219Z,540.00
2019-04-29T10:57:51.498Z,573.75
2019-04-29T10:58:51.217Z,511.88
2019-04-29T10:59:51.221Z,534.38
2019-04-29T11:00:52.746Z,601.88
2019-04-29T11:02:00.991Z,495.00
2019-04-29T11:02:52.139Z,410.62
2019-04-29T11:03:51.152Z,410.62
2019-04-29T11:04:51.135Z,551.25
2019-04-29T11:06:00.434Z,466.88
2019-04-29T11:06:52.112Z,450.00
2019-04-29T11:07:51.096Z,421.88
2019-04-29T11:08:51.105Z,455.62
2019-04-29T11:09:52.536Z,444.38
2019-04-29T11:10:51.061Z,478.12
2019-04-29T11:11:51.043Z,455.62
2019-04-29T11:12:51.037Z,433.12
2019-04-29T11:13:51.055Z,540.00
2019-04-29T11:14:51.006Z,495.00
2019-04-29T11:15:51.312Z,466.88
2019-04-29T11:16:50.998Z,478.12
2019-04-29T11:17:58.842Z,478.12
2019-04-29T11:18:55.036Z,495.00
2019-04-29T11:19:51.970Z,433.12
2019-04-29T11:20:53.801Z,483.75
2019-04-29T11:21:50.947Z,478.12
2019-04-29T11:22:50.923Z,438.75
2019-04-29T11:23:54.718Z,433.12
2019-04-29T11:24:51.930Z,450.00
2019-04-29T11:25:51.549Z,523.12
2019-04-29T11:26:50.872Z,478.12
2019-04-29T11:27:50.868Z,472.50
2019-04-29T11:28:52.250Z,511.88
2019-04-29T11:29:50.875Z,601.88
2019-04-29T11:30:50.864Z,556.88
2019-04-29T11:31:54.043Z,596.25
2019-04-29T11:32:50.823Z,551.25
2019-04-29T11:33:50.811Z,506.25
2019-04-29T11:34:53.406Z,495.00
2019-04-29T11:35:50.799Z,461.25
2019-04-29T11:36:50.783Z,534.38
2019-04-29T11:37:55.356Z,590.62
2019-04-29T11:38:51.785Z,562.50
2019-04-29T11:39:51.724Z,624.38
2019-04-29T11:40:50.730Z,528.75
2019-04-29T11:41:54.700Z,511.88
2019-04-29T11:42:51.717Z,646.88
2019-04-29T11:43:51.495Z,568.12
2019-04-29T11:44:50.701Z,511.88
2019-04-29T11:45:50.672Z,545.62
2019-04-29T11:46:50.771Z,556.88
2019-04-29T11:47:50.640Z,450.00
2019-04-29T11:48:50.643Z,405.00
2019-04-29T11:49:50.654Z,444.38
2019-04-29T11:50:54.743Z,455.62
2019-04-29T11:52:08.252Z,438.75
2019-04-29T11:52:51.611Z,365.62
2019-04-29T11:53:50.633Z,382.50
2019-04-29T11:54:50.580Z,348.75
2019-04-29T11:55:52.460Z,393.75
2019-04-29T11:56:51.570Z,360.00
2019-04-29T11:57:50.545Z,438.75
2019-04-29T11:58:50.525Z,444.38
2019-04-29T11:59:50.548Z,483.75
2019-04-29T12:00:52.127Z,540.00
2019-04-29T12:01:51.722Z,596.25
2019-04-29T12:02:50.495Z,613.12
2019-04-29T12:03:51.341Z,528.75
2019-04-29T12:04:51.460Z,573.75
2019-04-29T12:05:50.480Z,596.25
2019-04-29T12:06:51.331Z,624.38
2019-04-29T12:07:51.442Z,646.88
2019-04-29T12:08:53.396Z,675.00
2019-04-29T12:09:50.427Z,736.88
2019-04-29T12:11:06.052Z,658.12
2019-04-29T12:11:51.410Z,601.88
2019-04-29T12:12:50.468Z,652.50
2019-04-29T12:13:50.364Z,658.12
2019-04-29T12:14:50.357Z,663.75
2019-04-29T12:15:50.364Z,736.88
2019-04-29T12:16:50.343Z,703.12
2019-04-29T12:17:50.313Z,720.00
2019-04-29T12:18:50.314Z,669.38
2019-04-29T12:19:50.306Z,568.12
2019-04-29T12:20:50.294Z,669.38
2019-04-29T12:21:50.303Z,646.88
2019-04-29T12:22:50.300Z,686.25
2019-04-29T12:23:52.004Z,720.00
2019-04-29T12:24:50.250Z,714.38
2019-04-29T12:25:50.231Z,725.62
2019-04-29T12:26:50.213Z,725.62
2019-04-29T12:27:52.807Z,596.25
2019-04-29T12:28:51.230Z,736.88
2019-04-29T12:29:54.425Z,742.50
2019-04-29T12:30:51.174Z,770.62
2019-04-29T12:31:51.220Z,781.88
2019-04-29T12:32:50.160Z,753.75
2019-04-29T12:33:50.149Z,703.12
2019-04-29T12:34:50.244Z,793.12
2019-04-29T12:35:51.985Z,804.38
2019-04-29T12:36:55.779Z,765.00
2019-04-29T12:37:51.101Z,742.50
2019-04-29T12:38:51.099Z,787.50
2019-04-29T12:39:50.070Z,781.88
2019-04-29T12:40:54.621Z,810.00
2019-04-29T12:41:50.069Z,804.38
2019-04-29T12:42:50.064Z,810.00
2019-04-29T12:43:54.064Z,810.00
2019-04-29T12:44:51.016Z,765.00
2019-04-29T12:45:50.006Z,765.00
2019-04-29T12:46:50.028Z,742.50
2019-04-29T12:47:49.995Z,725.62
2019-04-29T12:48:50.018Z,725.62